Latest METARs, TAFs and NOTAMs for LIRN


---------------------------------------------------------------------------
	(OBSERVATIONS)
LIRN 221020Z 22005KT 180V260 9999 SCT025 SCT040 14/09 Q1022 NOSIG=
LIRN 220950Z 21005KT 160V260 9999 SCT025 SCT040 14/08 Q1022 NOSIG=
LIRN 220920Z VRB02KT 9999 FEW025 SCT040 14/08 Q1022 NOSIG=
LIRN 220850Z VRB02KT 9999 FEW025 SCT040 14/09 Q1022 NOSIG=
LIRN 220820Z VRB02KT 9999 FEW025 SCT040 14/08 Q1022 NOSIG=
LIRN 220750Z 00000KT 9999 FEW025 SCT040 13/08 Q1022 NOSIG=
---------------------------------------------------------------------------
	(FC)
Sorry, FC For LIRN Not Found
---------------------------------------------------------------------------
	(TERMINAL AREA FORECAST)
LIRN 220500Z 2206/2306 VRB05KT CAVOK
    BECMG 2208/2210 19010KT
    BECMG 2217/2219 VRB05KT=
---------------------------------------------------------------------------
	(NOTAMS)


LIRN A0159/17 CIRCLING GUIDANCE LIGHTS (CGL) RWY 06 UNSERVICEABLE
    REF AIP AD 2 LIRN 2-1. 11 JAN 10:37 2017 UNTIL 10 APR 23:59
    2017 ESTIMATED. CREATED: 11 JAN 10:37 2017

LIRN A0160/17 DME ASSOCIATED WITH ILS RWY24 UNSERVICEABLE DUE
    TO TECR REF AIP AD 2 LIRN 1-7. 11 JAN 10:38 2017 UNTIL 10
    APR 23:59 2017 ESTIMATED. CREATED: 11 JAN 10:38 2017

LIRN A0162/17 TEANO VOR/DME 'TEA' FREQ 112.90MHZ CH 76X REMOTE
    STATUS INDICATOR NOT AVBL REF AIP AD 2 LIRN 1-9. 11 JAN 11:21
    2017 UNTIL 08 APR 23:59 2017 ESTIMATED. CREATED: 11 JAN 11:21
    2017

LIRN A0486/17 SUP 6/16 IN FORCE FM 15 SEP 2016 TO 31 MAR 2017
    EST NAPOLI/CAPODICHINO AD: TWY TN REFURBISHING AND NEW TWY
    P STATUS OF WORKING PHASES: - PHASE 1: ACTIVE - PHASE 2:
    ACTIVE - PHASE 3: SUSPENDED - PHASE 4: NOT ACT YET - PHASE
    5: NOT ACT YET - PHASE 6: ACTIVE - PHASE 7: ACTIVE - PHASE
    8: ACTIVE - PHASE 9: ACTIVE - PHASE 10: ACTIVE - PHASE 11:
    NOT ACT YET - PHASE 12: NOT ACT YET REF AIP AD 2 LIRN 2-1.1/12
    AND 2-5.1/12. 24 JAN 15:59 2017 UNTIL 31 MAR 23:59 2017 ESTIMATED.
    CREATED: 24 JAN 15:59 2017

LIRN A0498/17 ALL STOPBARS AND ALL FIXED RED LIGHTS UNSERVICEABLE
    DUE TO TECR REF AIP AD 2 LIRN 2-1. 25 JAN 09:50 2017 UNTIL
    22 MAR 23:59 2017 ESTIMATED. CREATED: 25 JAN 09:50 2017

LIRN A0557/17 PRECISION APPROACH PATH INDICATOR (PAPI) RWY24
    LEFT SIDE UNSERVICEABLE. REF AIP AD 2 LIRN 1-5. 27 JAN 11:30
    2017 UNTIL 28 FEB 23:00 2017 ESTIMATED. CREATED: 27 JAN 11:31
    2017

LIRN A0719/17 PONZA VORTAC 'PNZ' FREQ 114.60MHZ CH 93X AVBL AS
    FLW: - VOR ON TEST DO NOT USE - TACAN OPERATIVE REF AIP AD
    2 LIRN 1-8. 02 FEB 10:04 2017 UNTIL 30 APR 22:59 2017 ESTIMATED.
    CREATED: 02 FEB 10:04 2017

LIRN A0814/16 REF AIP AD 2 LIRN 5-3 AND 5-7 INSTRUMENT APPROACH
    PROCEDURES ILS-Z RWY 24 ILS-W RWY 24 (ATC DISCRETION) MODIFY
    MISSED APPROACH AS FLW: AS SOON AS PRACTICABLE, CLIMBING
    TO 6000FT, TURN LEFT ON TR 180DEG, NOT BEFORE 1.3NM INPL
    DME (2.1NM NPC DME) WITH IAS MAX 180 KT, TO JOIN RDL/QDR
    342 SOR VOR/NDB BOUND TO GEMMA (4000FT MCA) THEN SOR VOR/NDB
    (6000FT). 10 FEB 16:39 2016 UNTIL PERM. CREATED: 10 FEB 16:39
    2016

LIRN A0815/16 REF AIP AD 2 LIRN 5-9 INSTRUMENT APPROACH PROCEDURE
    ILS-V RWY 24 (ATC DISCRETION) MODIFY MISSED APPROACH AS FLW:
    AS SOON AS PRACTICABLE, CLIMBING TO 6000FT, TURN LEFT ON
    TR 180DEG, NOT BEFORE 3.1NM POM DME, PASSING POM DME, WITH
    IAS MAX 180 KT, TO JOIN RDL/QDR 342 SOR VOR/NDB BOUND TO
    GEMMA (4000FT MCA) THEN SOR VOR/NDB (6000FT). 10 FEB 16:40
    2016 UNTIL PERM. CREATED: 10 FEB 16:40 2016

LIRN A0816/16 REF AIP AD 2 LIRN 5-11, 5-15 AND 5-17 INSTRUMENT
    APPROACH PROCEDURES LOC-Z RWY 24 LOC-W RWY 24 (ATC DISCRETION)
    LOC-V RWY 24 (ATC DISCRETION) MODIFY MISSED APPROACH AS FLW:
    ON MAPT CLIMB TO 6000FT AND TURN LEFT ON TR 180DEG (IAS MAX
    180 KT) TO JOIN RDL/QDR 342 SOR VOR/NDB BOUND TO GEMMA (4000FT
    MCA) THEN SOR VOR/NDB (6000FT). 10 FEB 16:42 2016 UNTIL PERM.
    CREATED: 10 FEB 16:42 2016

LIRN A0817/16 REF AIP AD 2 LIRN 5-13 INSTRUMENT APPROACH PROCEDURE
    LOC-Y RWY 24 MODIFY MISSED APPROACH AS FLW: ON MAPT CLIMB
    TO 6000FT AND TURN LEFT ON TR 180DEG (IAS MAX 180 KT) TO
    JOIN RDL/QDR 156 TEA VOR/NDB BOUND TO GEMMA (4000FT MCA)
    THEN PROCEED TO MISSED APPROACH HOLDING PATTERN. HOLD ON
    RDL/QDR 156 TEA VOR/NDB BETWEEN 40NM AND 44NM TEA DME, INBOUND
    TR 336DEG, LEFT TURNS, MHA 6000FT. 10 FEB 16:42 2016 UNTIL
    PERM. CREATED: 10 FEB 16:42 2016

LIRN A0818/16 REF AIP AD 2 LIRN 5-5 INSTRUMENT APPROACH PROCEDURE
    ILS-Y RWY24 MODIFY MISSED APPROACH AS FLW: AS SOON AS PRACTICABLE,
    CLIMBING TO 6000FT, TURN LEFT ON TR 180DEG, NOT BEFORE 1.3NM
    INPL DME (2.1NM NPC DME) WITH IAS MAX 180KT, TO JOIN RDL/QDR
    156 TEA VOR/NDB BOUND TO GEMMA (4000FT MCA) THEN PROCEED
    TO MISSED APPROACH HOLDING PATTERN. HOLD ON RDL/QDR 156 TEA
    VOR/NDB BETWEEN 40NM AND 44NM TEA DME, INBOUND TR 336DEG,
    LEFT TURNS, MHA 6000FT. 10 FEB 16:43 2016 UNTIL PERM. CREATED:
    10 FEB 16:43 2016

LIRN A0849/17 TAXIWAY 'H' ALL LIGHTS UNSERVICEABLE DUE TO TECR
    REF AIP AD 2 LIRN 2-1. 08 FEB 14:24 2017 UNTIL 04 APR 23:59
    2017 ESTIMATED. CREATED: 08 FEB 14:24 2017

LIRN A0856/17 TWY 'H' AVBL ONLY FOR MILITARY ACFT. DURING NIGHT
    TIME USE OF FOLLOW-ME IS COMPULSORY. REF AIP AD 2 LIRN 2-1.1.
    08 FEB 17:34 2017 UNTIL 04 APR 23:59 2017 ESTIMATED. CREATED:
    08 FEB 17:34 2017

LIRN A8360/16 TAXIWAY 'M' CLOSED. REF AIP AD 2 LIRN 2-1. 28 NOV
    17:51 2016 UNTIL 26 FEB 04:00 2017 ESTIMATED. CREATED: 28
    NOV 17:52 2016

LIRN F0015/07 [DEFENSE ENERGY SUPPORT CENTER ADVISORY] FUEL AVAILABILITY
    NOT AVAILABLE PHONE AHEAD FOR FUEL AVAILABILITY. 12 JUL 10:20
    2020 UNTIL 01 AUG 25:20 2020

---------------------------------------------------------------------------